Time;durP1;ratioP1;P1;durP2;ratioP2;P2;SDS_P1;SDS_P2;PMS_P1;PMS_P2;Temp;Humidity;BMP_temperature;BMP_pressure;BME280_temperature;BME280_humidity;BME280_pressure;Samples;Min_cycle;Max_cycle;Signal;HPM_P1;HPM_P2
2022/03/18 00:02:05;;;;;;;69.20;26.23;;;;;;;1.49;79.49;99757.03;4425499;32;20423;-76
2022/03/18 00:04:32;;;;;;;69.95;27.13;;;;;;;1.45;79.59;99756.13;4425503;32;20086;-76
2022/03/18 00:06:59;;;;;;;73.75;29.95;;;;;;;1.13;80.79;99756.31;4425761;32;20089;-76
2022/03/18 00:09:25;;;;;;;;;;;;;;;0.81;82.47;99754.72;4425974;32;20109;-76
2022/03/18 00:11:53;;;;;;;67.90;24.63;;;;;;;1.46;80.36;99755.31;4425446;32;19996;-77
2022/03/18 00:14:20;;;;;;;59.65;21.90;;;;;;;1.57;78.96;99758.94;4425643;32;20412;-76
2022/03/18 00:16:46;;;;;;;;;;;;;;;1.83;76.35;99762.00;4425999;32;20402;-76
2022/03/18 00:19:13;;;;;;;50.58;20.37;;;;;;;1.82;74.57;99773.03;4424146;32;19981;-77
2022/03/18 00:21:40;;;;;;;;;;;;;;;1.50;75.15;99769.81;4425950;32;20166;-76
2022/03/18 00:24:07;;;;;;;49.00;19.62;;;;;;;1.82;73.58;99779.81;4425632;32;20040;-76
2022/03/18 00:26:34;;;;;;;;;;;;;;;1.70;74.21;99782.94;4425518;32;20467;-76
2022/03/18 00:29:01;;;;;;;52.35;20.98;;;;;;;1.78;74.30;99772.91;4425580;32;20012;-77
2022/03/18 00:31:29;;;;;;;60.72;26.33;;;;;;;1.54;75.58;99780.91;4425508;32;20156;-76
2022/03/18 00:33:56;;;;;;;66.15;28.40;;;;;;;1.61;77.05;99782.78;4425171;32;20086;-76
2022/03/18 00:36:23;;;;;;;;;;;;;;;1.25;79.44;99770.97;4425869;32;20115;-76
2022/03/18 00:38:50;;;;;;;82.43;33.28;;;;;;;1.40;80.69;99778.09;4425580;32;19969;-77
2022/03/18 00:41:18;;;;;;;;;;;;;;;1.40;81.15;99780.63;4425706;32;20105;-76
2022/03/18 00:43:45;;;;;;;75.05;31.23;;;;;;;1.70;81.09;99777.84;4425488;32;20312;-76
2022/03/18 00:46:12;;;;;;;62.13;26.65;;;;;;;1.71;79.57;99777.03;4425183;32;20593;-76
2022/03/18 00:54:11;;;;;;;52.33;21.80;;;;;;;1.42;75.01;99790.00;4424708;32;20198;-76
2022/03/18 00:56:37;;;;;;;;;;;;;;;0.77;77.59;99796.13;4425689;32;20436;-76
2022/03/18 00:59:04;;;;;;;57.88;23.42;;;;;;;0.42;79.31;99787.59;4425494;32;19989;-76
2022/03/18 01:01:32;;;;;;;57.67;24.70;;;;;;;0.47;79.34;99792.00;4425120;32;20134;-76
2022/03/18 01:04:00;;;;;;;51.83;22.77;;;;;;;0.66;78.82;99800.94;4425308;32;20077;-76
2022/03/18 01:06:27;;;;;;;;;;;;;;;0.99;78.11;99798.34;4425622;32;20428;-76
2022/03/18 01:08:54;;;;;;;51.33;19.00;;;;;;;0.84;78.57;99800.50;4424950;32;20041;-77
2022/03/18 01:11:21;;;;;;;48.45;20.58;;;;;;;0.74;78.60;99790.94;4425248;32;20132;-76
2022/03/18 01:13:47;;;;;;;;;;;;;;;0.65;79.24;99786.53;4425342;32;20093;-76
2022/03/18 01:16:15;;;;;;;53.63;20.62;;;;;;;0.83;79.02;99788.63;4425065;32;19964;-76
2022/03/18 01:18:42;;;;;;;45.97;20.02;;;;;;;0.67;80.11;99789.09;4425238;32;20128;-76
2022/03/18 01:21:09;;;;;;;42.90;18.85;;;;;;;0.57;81.10;99788.88;4424792;32;20152;-76
2022/03/18 01:23:35;;;;;;;;;;;;;;;0.81;80.80;99787.75;4425448;32;20148;-76
2022/03/18 01:26:02;;;;;;;52.08;20.30;;;;;;;0.93;79.68;99788.03;4425264;32;19984;-76
2022/03/18 01:28:30;;;;;;;;;;;;;;;0.78;81.12;99780.91;4425244;32;20098;-76
2022/03/18 01:30:57;;;;;;;79.62;29.73;;;;;;;1.03;81.14;99784.88;4425028;32;19993;-76
2022/03/18 01:33:24;;;;;;;69.40;27.17;;;;;;;0.95;83.54;99775.34;4424931;32;20090;-76
2022/03/18 01:35:51;;;;;;;83.72;30.65;;;;;;;1.15;82.33;99777.53;4424797;32;20111;-76
2022/03/18 01:38:18;;;;;;;75.87;28.40;;;;;;;1.28;81.68;99780.37;4424947;32;20169;-76
2022/03/18 01:40:45;;;;;;;81.15;30.65;;;;;;;1.39;81.72;99778.91;4424846;32;20161;-76
2022/03/18 01:43:12;;;;;;;;;;;;;;;1.30;81.38;99784.66;4424928;32;20089;-77
2022/03/18 01:45:39;;;;;;;72.07;25.65;;;;;;;1.41;81.32;99777.25;4425052;32;20036;-76
2022/03/18 01:48:06;;;;;;;60.45;24.45;;;;;;;1.28;81.17;99772.75;4424903;32;20098;-76
2022/03/18 01:50:34;;;;;;;50.45;22.55;;;;;;;1.75;79.08;99783.91;4424448;32;20169;-77
2022/03/18 01:53:01;;;;;;;52.20;23.23;;;;;;;1.43;78.38;99785.78;4424738;32;20077;-77
2022/03/18 01:55:29;;;;;;;49.15;20.73;;;;;;;1.60;78.03;99789.53;4423669;32;20120;-76
2022/03/18 01:57:56;;;;;;;47.45;21.35;;;;;;;1.81;76.50;99780.59;4424514;32;20104;-77
2022/03/18 02:00:22;;;;;;;;;;;;;;;1.51;77.48;99789.34;4425020;32;20104;-76
2022/03/18 02:02:49;;;;;;;55.28;21.67;;;;;;;1.38;78.39;99792.44;4424466;32;20026;-76
2022/03/18 02:05:17;;;;;;;56.35;23.58;;;;;;;1.10;79.15;99791.84;4424381;32;20077;-76
2022/03/18 02:07:45;;;;;;;60.25;24.42;;;;;;;1.08;79.08;99790.94;4425991;32;20150;-77
2022/03/18 02:10:12;;;;;;;64.65;24.85;;;;;;;1.78;76.92;99799.22;4426122;32;20137;-76
2022/03/18 02:12:41;;;;;;;65.07;25.02;;;;;;;1.65;77.63;99793.03;4426505;32;20145;-77
2022/03/18 02:15:11;;;;;;;56.75;24.02;;;;;;;1.89;77.36;99787.56;4426401;32;20086;-76
2022/03/18 02:17:38;;;;;;;61.70;25.00;;;;;;;1.80;78.40;99797.56;4426293;32;20098;-76
2022/03/18 02:20:06;;;;;;;54.92;23.52;;;;;;;1.89;78.40;99800.28;4426423;32;20098;-76
2022/03/18 02:22:42;;;;;;;55.35;22.13;;;;;;;1.95;77.43;99797.88;4426421;32;20590;-76
2022/03/18 02:25:12;;;;;;;56.17;21.90;;;;;;;1.87;77.99;99807.03;4426139;32;20099;-76
2022/03/18 02:27:41;;;;;;;58.03;22.52;;;;;;;1.61;79.82;99810.75;4426435;32;20117;-76
2022/03/18 02:30:09;;;;;;;106.47;27.73;;;;;;;1.26;81.64;99815.91;4425136;32;20114;-77
2022/03/18 02:32:36;;;;;;;66.35;25.08;;;;;;;1.21;82.67;99816.66;4425950;32;20158;-77
2022/03/18 02:35:03;;;;;;;66.00;25.92;;;;;;;1.47;82.43;99819.75;4426267;32;20155;-77
2022/03/18 02:37:30;;;;;;;76.75;26.48;;;;;;;1.52;82.62;99821.59;4426398;32;20420;-77
2022/03/18 02:39:58;;;;;;;;;;;;;;;1.72;82.38;99824.56;4426257;32;20129;-77
2022/03/18 02:42:25;;;;;;;82.88;25.27;;;;;;;2.21;81.50;99826.37;4426352;32;19985;-77
2022/03/18 02:44:53;;;;;;;;;;;;;;;2.01;83.01;99818.34;4425541;32;20140;-77
2022/03/18 02:47:20;;;;;;;115.68;27.67;;;;;;;2.20;83.22;99828.91;4426110;32;20291;-77
2022/03/18 02:49:48;;;;;;;107.68;30.05;;;;;;;2.36;83.69;99827.50;4426183;32;20137;-77
2022/03/18 02:52:15;;;;;;;148.62;31.92;;;;;;;2.43;83.32;99829.31;4425636;32;20093;-76
2022/03/18 02:54:42;;;;;;;141.85;31.30;;;;;;;2.43;83.21;99829.31;4426259;32;20070;-77
2022/03/18 02:57:09;;;;;;;192.23;33.90;;;;;;;2.38;83.24;99829.25;4426227;32;20094;-77
2022/03/18 02:59:36;;;;;;;170.77;32.28;;;;;;;2.42;83.27;99838.66;4425801;32;20098;-76
2022/03/18 03:02:03;;;;;;;187.40;34.45;;;;;;;2.65;82.59;99839.06;4425716;32;20103;-77
2022/03/18 03:04:31;;;;;;;233.20;35.35;;;;;;;2.43;83.10;99834.41;4426129;32;20538;-77
2022/03/18 03:09:43;;;;;;;291.98;39.95;;;;;;;2.79;81.64;99836.78;4426036;32;20120;-77
2022/03/18 03:12:10;;;;;;;;;;;;;;;2.79;81.67;99842.72;4426264;32;20148;-77
2022/03/18 03:14:37;;;;;;;223.82;36.30;;;;;;;2.98;81.37;99848.13;4425697;32;19977;-76
2022/03/18 03:17:04;;;;;;;204.00;35.78;;;;;;;2.92;81.67;99848.87;4425745;32;20090;-77
2022/03/18 03:19:31;;;;;;;;;;;;;;;2.80;82.71;99841.03;4426305;32;20146;-77
2022/03/18 03:21:58;;;;;;;461.35;44.50;;;;;;;3.03;82.32;99847.38;4425780;32;19991;-77
2022/03/18 03:24:26;;;;;;;;;;;;;;;2.86;83.92;99856.41;4426255;32;20148;-77
2022/03/18 03:26:53;;;;;;;502.17;48.72;;;;;;;3.04;83.58;99849.09;4426073;32;19980;-77
2022/03/18 03:29:19;;;;;;;;;;;;;;;2.30;88.86;99851.16;4425916;32;20107;-77
2022/03/18 03:31:46;;;;;;;592.60;51.47;;;;;;;2.35;89.43;99858.91;4425962;32;20511;-77
2022/03/18 03:34:14;;;;;;;369.62;44.97;;;;;;;2.64;88.08;99869.63;4425813;32;20085;-77
2022/03/18 03:36:41;;;;;;;464.10;51.63;;;;;;;3.00;86.68;99870.28;4426026;32;20121;-77
2022/03/18 03:39:08;;;;;;;425.92;51.40;;;;;;;3.13;86.06;99872.19;4425951;32;20417;-77
2022/03/18 03:41:35;;;;;;;;;;;;;;;3.42;84.67;99876.91;4425723;32;20081;-77
2022/03/18 03:44:02;;;;;;;361.48;42.85;;;;;;;3.36;84.60;99872.53;4426039;32;19965;-77
2022/03/18 03:46:33;;;;;;;347.80;43.35;;;;;;;2.47;92.68;99874.44;4425900;32;20127;-77
2022/03/18 03:49:00;;;;;;;403.73;48.15;;;;;;;2.30;97.06;99881.75;4425471;32;20086;-77
2022/03/18 03:51:27;;;;;;;241.70;40.78;;;;;;;3.07;95.14;99883.97;4425907;32;20123;-77
2022/03/18 03:53:54;;;;;;;;;;;;;;;3.09;96.48;99889.97;4425925;32;20081;-76
2022/03/18 03:56:21;;;;;;;218.35;36.88;;;;;;;2.62;100.00;99897.62;4425544;32;19985;-76
2022/03/18 03:58:48;;;;;;;;;;;;;;;2.28;100.00;99907.19;4426069;32;20128;-76
2022/03/18 04:01:15;;;;;;;209.82;36.83;;;;;;;2.11;100.00;99908.50;4425887;32;20036;-76
2022/03/18 04:03:43;;;;;;;225.77;38.17;;;;;;;2.05;100.00;99921.12;4425026;32;20157;-76
2022/03/18 04:06:10;;;;;;;244.52;40.28;;;;;;;2.11;100.00;99916.16;4425622;32;20137;-76
2022/03/18 04:08:37;;;;;;;;;;;;;;;1.97;100.00;99923.50;4426037;32;20133;-76
2022/03/18 04:11:03;;;;;;;389.60;52.62;;;;;;;2.27;100.00;99920.75;4425429;32;19972;-77
2022/03/18 04:13:30;;;;;;;;;;;;;;;2.35;100.00;99917.50;4425794;32;20088;-76
2022/03/18 04:15:57;;;;;;;476.30;53.87;;;;;;;2.51;100.00;99922.91;4425763;32;19985;-76
2022/03/18 04:18:24;;;;;;;496.15;57.08;;;;;;;3.06;100.00;99931.56;4425335;32;20155;-76
2022/03/18 04:20:51;;;;;;;;;;;;;;;2.71;100.00;99933.50;4425859;32;20500;-76
2022/03/18 04:23:18;;;;;;;353.35;43.60;;;;;;;2.93;100.00;99941.53;4425647;32;19970;-77
2022/03/18 04:25:45;;;;;;;314.23;43.92;;;;;;;2.58;100.00;99941.75;4425373;32;20125;-76
2022/03/18 04:28:12;;;;;;;;;;;;;;;2.12;100.00;99947.56;4426002;32;20777;-76
2022/03/18 04:30:39;;;;;;;163.82;34.67;;;;;;;2.03;100.00;99946.56;4424436;32;19977;-76
2022/03/18 04:33:06;;;;;;;271.30;41.03;;;;;;;2.14;100.00;99949.34;4425544;32;20144;-76
2022/03/18 04:35:33;;;;;;;269.40;40.12;;;;;;;2.21;100.00;99953.72;4425473;32;20105;-76
2022/03/18 04:38:00;;;;;;;;;;;;;;;2.27;100.00;99947.91;4425555;32;20116;-76
2022/03/18 04:40:28;;;;;;;257.92;44.08;;;;;;;2.26;100.00;99949.59;4425416;32;20041;-76
2022/03/18 04:42:55;;;;;;;373.58;50.33;;;;;;;2.31;100.00;99953.09;4425408;32;20165;-76
2022/03/18 04:45:23;;;;;;;392.33;51.60;;;;;;;2.69;100.00;99960.66;4425157;32;20085;-76
2022/03/18 04:47:55;;;;;;;406.15;54.42;;;;;;;2.78;100.00;99963.37;4425583;32;20115;-76
2022/03/18 04:50:21;;;;;;;;;;;;;;;2.75;100.00;99977.72;4425693;32;20109;-76
2022/03/18 04:52:48;;;;;;;449.88;55.05;;;;;;;2.91;100.00;99979.75;4425120;32;19965;-76
2022/03/18 04:55:15;;;;;;;;;;;;;;;2.79;100.00;99972.75;4425511;32;20467;-76
2022/03/18 04:57:42;;;;;;;419.62;56.65;;;;;;;3.06;100.00;99976.63;4425483;32;19981;-76
2022/03/18 05:00:10;;;;;;;526.95;64.72;;;;;;;2.86;100.00;99981.34;4425000;32;20184;-76
2022/03/18 05:02:37;;;;;;;583.17;64.30;;;;;;;3.15;100.00;99985.28;4425005;32;20066;-77
2022/03/18 05:05:05;;;;;;;372.42;48.35;;;;;;;3.01;100.00;99985.91;4425316;32;20156;-77
2022/03/18 05:07:32;;;;;;;270.58;43.90;;;;;;;3.06;100.00;99995.34;4425008;32;20105;-76
2022/03/18 05:09:59;;;;;;;;;;;;;;;2.93;100.00;99997.62;4425509;32;20584;-76
2022/03/18 05:12:28;;;;;;;320.75;45.28;;;;;;;2.84;100.00;99994.06;4425230;32;19996;-76
2022/03/18 05:14:55;;;;;;;317.27;49.05;;;;;;;2.83;100.00;100000.00;4424998;32;20102;-76
2022/03/18 05:17:22;;;;;;;;;;;;;;;2.91;100.00;99992.50;4425689;32;20107;-76
2022/03/18 05:19:49;;;;;;;465.45;57.62;;;;;;;3.28;100.00;100003.37;4424760;32;19976;-76
2022/03/18 05:22:16;;;;;;;353.85;49.85;;;;;;;3.06;100.00;100004.66;4425004;32;20147;-76
2022/03/18 05:24:43;;;;;;;408.30;53.30;;;;;;;3.45;100.00;100012.19;4425193;32;20149;-76
2022/03/18 05:27:10;;;;;;;511.42;60.55;;;;;;;3.44;100.00;99998.56;4424829;32;20436;-76
2022/03/18 05:29:37;;;;;;;544.55;68.62;;;;;;;4.03;100.00;100006.28;4424988;32;20169;-77
2022/03/18 05:32:04;;;;;;;553.55;70.55;;;;;;;4.30;100.00;100010.94;4425101;32;20627;-77
2022/03/18 05:34:32;;;;;;;585.92;68.03;;;;;;;4.57;96.60;100015.59;4424717;32;20093;-76
2022/03/18 05:36:59;;;;;;;593.13;69.80;;;;;;;4.70;94.59;100016.59;4425006;32;20145;-77
2022/03/18 05:39:26;;;;;;;678.38;76.40;;;;;;;4.56;95.87;100024.06;4424921;32;20094;-77
2022/03/18 05:41:53;;;;;;;658.87;68.28;;;;;;;4.55;96.32;100022.34;4424522;32;20145;-76
2022/03/18 05:44:19;;;;;;;656.53;68.37;;;;;;;4.58;96.29;100029.22;4424865;32;20125;-77
2022/03/18 05:46:46;;;;;;;438.87;52.90;;;;;;;4.07;97.69;100025.09;4424970;32;20130;-77
2022/03/18 05:49:14;;;;;;;594.15;63.83;;;;;;;4.08;98.18;100031.94;4424593;32;20182;-77
2022/03/18 05:51:41;;;;;;;587.92;64.78;;;;;;;4.30;97.24;100036.50;4424871;32;20571;-77
2022/03/18 05:54:09;;;;;;;463.63;56.80;;;;;;;4.53;96.25;100036.81;4424760;32;20443;-77
2022/03/18 05:56:55;;;;;;;506.35;59.22;;;;;;;4.74;96.27;100035.38;4424576;32;20108;-77
2022/03/18 05:59:24;;;;;;;400.40;50.15;;;;;;;5.12;93.89;100038.38;4424798;32;20086;-77
2022/03/18 06:01:52;;;;;;;475.42;55.05;;;;;;;4.89;95.40;100033.00;4423147;32;20485;-76
2022/03/18 06:04:20;;;;;;;340.60;48.33;;;;;;;4.92;95.72;100038.16;4424725;32;20086;-77
2022/03/18 06:06:47;;;;;;;387.75;51.20;;;;;;;4.65;96.65;100052.31;4424722;32;20141;-77
2022/03/18 06:12:02;;;;;;;353.52;48.28;;;;;;;3.64;100.00;100047.41;4424524;32;20097;-76
2022/03/18 06:14:29;;;;;;;285.90;47.10;;;;;;;3.90;100.00;100052.94;4423349;32;20102;-76
2022/03/18 06:16:59;;;;;;;310.65;51.67;;;;;;;3.68;100.00;100055.97;4424088;32;20112;-76
2022/03/18 06:19:27;;;;;;;307.52;46.30;;;;;;;3.89;100.00;100058.00;4424336;32;20090;-76
2022/03/18 06:21:55;;;;;;;193.05;42.97;;;;;;;3.52;100.00;100057.41;4424420;32;20117;-76
2022/03/18 06:24:22;;;;;;;191.40;43.72;;;;;;;3.57;100.00;100062.59;4424111;32;20156;-76
2022/03/18 06:26:50;;;;;;;133.45;37.67;;;;;;;3.53;100.00;100064.22;4424189;32;20108;-76
2022/03/18 06:29:17;;;;;;;142.52;35.92;;;;;;;3.48;100.00;100058.16;4424165;32;20444;-76
2022/03/18 06:31:44;;;;;;;157.40;39.05;;;;;;;3.17;100.00;100066.94;4424020;32;20073;-76
2022/03/18 06:34:11;;;;;;;120.10;36.22;;;;;;;3.54;100.00;100070.19;4424055;32;20089;-76
2022/03/18 06:36:39;;;;;;;135.95;36.25;;;;;;;3.34;100.00;100070.69;4424188;32;20500;-76
2022/03/18 06:39:07;;;;;;;201.68;43.33;;;;;;;3.38;100.00;100077.56;4423838;32;20523;-77
2022/03/18 06:41:35;;;;;;;152.65;37.25;;;;;;;3.43;100.00;100080.22;4424247;32;20082;-76
2022/03/18 06:44:02;;;;;;;177.80;45.05;;;;;;;3.07;100.00;100078.66;4423890;32;20149;-76
2022/03/18 06:46:29;;;;;;;98.35;34.45;;;;;;;3.44;100.00;100082.78;4424141;32;20134;-76
2022/03/18 06:48:56;;;;;;;110.60;39.28;;;;;;;2.78;100.00;100088.28;4423979;32;20082;-77
2022/03/18 06:51:23;;;;;;;;;;;;;;;3.33;100.00;100086.84;4424063;32;20065;-76
2022/03/18 06:53:50;;;;;;;113.80;38.85;;;;;;;3.09;100.00;100091.47;4425570;32;19973;-76
2022/03/18 06:56:16;;;;;;;;;;;;;;;2.98;100.00;100092.91;4426307;32;20137;-76
2022/03/18 06:58:44;;;;;;;125.75;40.33;;;;;;;3.25;100.00;100084.97;4425859;32;19981;-75
2022/03/18 07:01:11;;;;;;;129.45;41.55;;;;;;;3.31;100.00;100085.09;4423150;32;20145;-76
2022/03/18 07:03:38;;;;;;;140.82;45.12;;;;;;;3.07;100.00;100096.50;4424547;32;20153;-76
2022/03/18 07:06:06;;;;;;;132.52;40.25;;;;;;;2.59;100.00;100106.56;4424698;32;20399;-76
2022/03/18 07:08:34;;;;;;;120.70;39.40;;;;;;;2.73;100.00;100107.72;4425512;32;20082;-76
2022/03/18 07:11:02;;;;;;;137.50;45.15;;;;;;;3.12;100.00;100107.69;4424867;32;20149;-75
2022/03/18 07:13:29;;;;;;;128.23;40.58;;;;;;;2.85;100.00;100122.41;4424899;32;20105;-78
2022/03/18 07:17:54;;;;;;;121.50;40.58;;;;;;;3.17;100.00;100105.22;4424265;32;20113;-76
2022/03/18 07:18:43;;;;;;;146.77;44.80;;;;;;;3.12;100.00;100111.94;4425247;32;20098;-75
2022/03/18 07:21:13;;;;;;;111.00;38.10;;;;;;;3.08;100.00;100121.19;4424753;32;20074;-76
2022/03/18 07:23:40;;;;;;;149.65;45.88;;;;;;;2.85;100.00;100130.91;4425388;32;20153;-76
2022/03/18 07:26:07;;;;;;;;;;;;;;;3.23;100.00;100130.84;4424447;32;20106;-75
2022/03/18 07:28:34;;;;;;;120.78;41.92;;;;;;;3.66;100.00;100127.44;4425297;32;19988;-75
2022/03/18 07:31:01;;;;;;;120.00;42.45;;;;;;;3.41;100.00;100141.44;4424817;32;20640;-76
2022/03/18 07:33:28;;;;;;;126.35;42.50;;;;;;;3.18;100.00;100147.75;4424716;32;20116;-75
2022/03/18 07:35:56;;;;;;;;;;;;;;;2.97;100.00;100148.16;4424830;32;20104;-75
2022/03/18 07:38:23;;;;;;;110.15;37.70;;;;;;;2.92;100.00;100152.31;4425395;32;19969;-75
2022/03/18 07:40:52;;;;;;;115.90;39.90;;;;;;;3.18;100.00;100158.81;4424301;32;20476;-75
2022/03/18 07:43:19;;;;;;;109.30;38.38;;;;;;;3.33;100.00;100158.28;4425093;32;20691;-75
2022/03/18 07:45:47;;;;;;;111.30;38.38;;;;;;;3.42;100.00;100155.91;4423263;32;20587;-75
2022/03/18 07:48:14;;;;;;;102.62;39.78;;;;;;;3.44;100.00;100155.94;4423408;32;20482;-74
2022/03/18 07:50:41;;;;;;;93.10;34.00;;;;;;;3.14;100.00;100162.13;4423105;32;20094;-74
2022/03/18 07:53:09;;;;;;;101.62;37.80;;;;;;;3.29;100.00;100158.16;4423366;32;20733;-75
2022/03/18 07:55:37;;;;;;;98.05;35.63;;;;;;;3.63;100.00;100157.16;4423353;32;20097;-75
2022/03/18 07:58:06;;;;;;;113.78;39.63;;;;;;;3.52;100.00;100171.41;4423578;32;20453;-75
2022/03/18 08:00:34;;;;;;;101.93;38.38;;;;;;;3.93;99.50;100173.00;4423999;32;20364;-75
2022/03/18 08:03:02;;;;;;;85.70;33.38;;;;;;;3.91;98.72;100167.00;4423372;32;20477;-75
2022/03/18 08:05:30;;;;;;;101.62;35.88;;;;;;;3.85;99.16;100176.28;4423328;32;20133;-75
2022/03/18 08:07:58;;;;;;;90.38;33.63;;;;;;;4.32;98.17;100177.94;4423493;32;20107;-74
2022/03/18 08:10:25;;;;;;;88.15;34.55;;;;;;;4.21;96.41;100176.91;4425026;32;20510;-76
2022/03/18 08:12:55;;;;;;;93.50;35.85;;;;;;;4.37;96.50;100185.69;4424562;32;20154;-75
2022/03/18 08:15:24;;;;;;;76.20;31.50;;;;;;;4.53;95.10;100187.66;4417920;32;155873;-75
2022/03/18 08:17:54;;;;;;;85.20;33.10;;;;;;;4.68;93.24;100187.03;4424903;32;20172;-75
2022/03/18 08:20:21;;;;;;;83.05;32.72;;;;;;;4.90;93.03;100190.78;4424563;32;20102;-75
2022/03/18 08:22:49;;;;;;;89.75;30.65;;;;;;;4.73;92.38;100193.06;4424149;32;20153;-74
2022/03/18 08:25:17;;;;;;;80.45;31.75;;;;;;;4.59;93.35;100200.53;4423174;32;20181;-75
2022/03/18 08:27:43;;;;;;;63.70;27.73;;;;;;;4.88;93.55;100198.41;4424845;32;20102;-74
2022/03/18 08:30:14;;;;;;;62.80;26.60;;;;;;;4.27;93.05;100197.47;4424270;32;20436;-75
2022/03/18 08:32:46;;;;;;;54.63;24.55;;;;;;;4.30;93.43;100199.19;4424383;32;20116;-75
2022/03/18 08:35:13;;;;;;;42.55;16.42;;;;;;;4.68;90.33;100206.59;4424047;32;20529;-75
2022/03/18 08:37:58;;;;;;;54.97;24.63;;;;;;;5.23;88.05;100209.13;4424330;32;20576;-75
2022/03/18 08:40:33;;;;;;;63.67;29.33;;;;;;;5.33;88.17;100210.13;4424526;32;20086;-75
2022/03/18 08:43:04;;;;;;;64.28;25.25;;;;;;;5.47;88.10;100212.84;4422855;32;20162;-75
2022/03/18 08:45:31;;;;;;;59.88;25.12;;;;;;;5.09;88.77;100209.78;4423973;32;20165;-75
2022/03/18 08:47:58;;;;;;;51.22;22.13;;;;;;;5.27;87.69;100210.03;4423591;32;20375;-75
2022/03/18 08:50:25;;;;;;;62.05;26.92;;;;;;;5.78;86.52;100214.91;4424355;32;20090;-75
2022/03/18 08:52:53;;;;;;;70.85;28.87;;;;;;;5.75;86.91;100232.81;4424352;32;20162;-75
2022/03/18 08:55:21;;;;;;;61.10;26.85;;;;;;;6.07;86.43;100219.53;4423923;32;20097;-74
2022/03/18 08:57:49;;;;;;;53.40;23.65;;;;;;;6.32;84.57;100220.63;4423825;32;20089;-75
2022/03/18 09:00:17;;;;;;;47.17;21.37;;;;;;;6.34;82.36;100226.63;4424346;32;20180;-74
2022/03/18 09:02:45;;;;;;;32.35;13.27;;;;;;;6.16;81.22;100239.25;4424064;32;20104;-75
2022/03/18 09:05:13;;;;;;;42.67;18.50;;;;;;;6.71;77.73;100240.63;4422539;32;20105;-75
2022/03/18 09:07:40;;;;;;;35.58;14.87;;;;;;;6.52;78.94;100237.03;4423342;32;20107;-75
2022/03/18 09:10:09;;;;;;;37.03;16.15;;;;;;;7.48;75.21;100244.50;4424352;32;20086;-75
2022/03/18 09:12:44;;;;;;;34.70;16.65;;;;;;;7.01;76.97;100249.38;4423918;32;20109;-75
2022/03/18 09:15:11;;;;;;;30.75;12.55;;;;;;;7.21;73.56;100240.94;4423498;32;20376;-75
2022/03/18 09:17:39;;;;;;;38.75;15.55;;;;;;;7.54;72.24;100245.38;4424411;32;20184;-75
2022/03/18 09:20:06;;;;;;;37.05;15.32;;;;;;;7.75;71.66;100243.75;4424145;32;20097;-75
2022/03/18 09:22:33;;;;;;;29.67;13.15;;;;;;;7.72;71.41;100248.88;4424293;32;20105;-75
2022/03/18 09:25:00;;;;;;;33.85;14.23;;;;;;;7.25;71.99;100250.41;4423674;32;20093;-75
2022/03/18 09:27:27;;;;;;;36.08;17.42;;;;;;;7.79;71.67;100248.06;4424036;32;20428;-75
2022/03/18 09:29:53;;;;;;;;;;;;;;;7.30;73.59;100250.41;4424436;32;20091;-75
2022/03/18 09:32:20;;;;;;;33.30;14.82;;;;;;;7.22;73.04;100249.50;4424158;32;20036;-75
2022/03/18 09:34:47;;;;;;;34.97;16.20;;;;;;;7.10;74.42;100252.00;4423748;32;20111;-74
2022/03/18 09:37:14;;;;;;;;;;;;;;;7.54;74.09;100252.22;4424620;32;20148;-75
2022/03/18 09:39:41;;;;;;;34.22;15.52;;;;;;;7.57;72.87;100254.84;4423839;32;19974;-75
2022/03/18 09:42:09;;;;;;;32.28;14.82;;;;;;;7.59;72.14;100257.41;4424249;32;20153;-75
2022/03/18 09:44:37;;;;;;;28.00;13.93;;;;;;;7.72;70.58;100254.03;4423738;32;20128;-75
2022/03/18 09:47:05;;;;;;;31.17;14.63;;;;;;;8.27;68.08;100260.19;4423418;32;20090;-75
2022/03/18 09:49:34;;;;;;;16.42;6.32;;;;;;;8.49;67.25;100252.53;4424041;32;20547;-75
2022/03/18 09:52:04;;;;;;;30.60;14.32;;;;;;;8.27;67.67;100260.19;4424225;32;20097;-75
2022/03/18 09:54:32;;;;;;;34.67;15.40;;;;;;;8.46;65.65;100263.69;4423394;32;20149;-75
2022/03/18 09:57:00;;;;;;;40.10;17.02;;;;;;;8.93;65.96;100267.97;4423073;32;20082;-75
2022/03/18 09:59:28;;;;;;;30.30;13.60;;;;;;;9.43;63.54;100267.87;4423940;32;20108;-75
2022/03/18 10:02:25;;;;;;;36.05;16.77;;;;;;;8.84;65.35;100276.56;4423328;32;20634;-75
2022/03/18 10:05:00;;;;;;;31.00;13.57;;;;;;;8.14;67.66;100273.88;4421996;32;20158;-75
2022/03/18 10:07:28;;;;;;;30.98;12.77;;;;;;;9.01;65.72;100275.69;4423686;32;20099;-75
2022/03/18 10:10:15;;;;;;;32.17;15.20;;;;;;;9.31;64.50;100274.78;4423739;32;20112;-75
2022/03/18 10:12:47;;;;;;;29.63;14.80;;;;;;;9.31;63.54;100285.09;4423857;32;20097;-75
2022/03/18 10:15:17;;;;;;;28.20;14.02;;;;;;;9.90;59.75;100287.50;4422603;32;20093;-75
2022/03/18 10:17:57;;;;;;;28.92;13.07;;;;;;;9.86;60.53;100278.91;4423582;32;20444;-75
2022/03/18 10:20:35;;;;;;;28.70;13.88;;;;;;;9.62;59.47;100288.44;4422377;32;20141;-75
2022/03/18 10:23:17;;;;;;;28.55;13.32;;;;;;;9.80;59.90;100285.81;4423307;32;20110;-75
2022/03/18 10:25:52;;;;;;;31.10;16.48;;;;;;;9.69;59.64;100287.59;4423086;32;20158;-75
2022/03/18 10:28:35;;;;;;;32.50;16.58;;;;;;;9.87;59.61;100287.47;4424504;32;20132;-76
2022/03/18 10:31:10;;;;;;;33.70;16.10;;;;;;;9.72;60.37;100285.84;4425483;32;20147;-75
2022/03/18 10:39:32;;;;;;;36.53;18.55;;;;;;;10.46;60.54;100286.34;4425633;32;20101;-76
2022/03/18 10:42:03;;;;;;;32.15;17.30;;;;;;;10.43;59.83;100294.13;4425484;32;20117;-77
2022/03/18 10:44:41;;;;;;;34.80;17.70;;;;;;;10.35;59.30;100294.16;4423609;32;20168;-75
2022/03/18 10:47:08;;;;;;;31.92;16.00;;;;;;;10.48;59.46;100294.94;4425346;32;20125;-75
2022/03/18 10:49:39;;;;;;;33.38;17.50;;;;;;;10.54;59.01;100294.06;4425398;32;20085;-75
2022/03/18 10:52:10;;;;;;;35.20;16.50;;;;;;;10.38;59.65;100291.56;4425647;32;20105;-75
2022/03/18 10:54:38;;;;;;;22.77;11.20;;;;;;;11.01;57.30;100298.84;4424964;32;20144;-75
2022/03/18 10:57:05;;;;;;;35.63;18.10;;;;;;;10.88;57.09;100305.84;4424177;32;20119;-75
2022/03/18 10:59:32;;;;;;;34.70;17.92;;;;;;;10.99;58.32;100300.56;4425367;32;20098;-75
2022/03/18 11:02:00;;;;;;;36.60;18.50;;;;;;;11.13;56.92;100298.72;4424869;32;20157;-75
2022/03/18 11:04:28;;;;;;;35.47;18.42;;;;;;;10.96;59.06;100292.88;4424810;32;20158;-75
2022/03/18 11:12:31;;;;;;;32.60;16.02;;;;;;;11.03;57.61;100284.16;4424852;32;20141;-75
2022/03/18 11:15:04;;;;;;;32.75;15.85;;;;;;;11.00;57.06;100290.22;4424554;32;20129;-75
2022/03/18 11:17:32;;;;;;;30.35;16.35;;;;;;;10.77;57.60;100288.72;4425340;32;20098;-75
2022/03/18 11:20:01;;;;;;;33.97;16.27;;;;;;;11.45;56.03;100285.47;4423936;32;20143;-75
2022/03/18 11:22:30;;;;;;;32.95;16.25;;;;;;;11.45;55.54;100282.03;4425185;32;20155;-75
2022/03/18 11:24:58;;;;;;;31.12;16.23;;;;;;;10.81;56.74;100274.91;4424105;32;20450;-75
2022/03/18 11:27:25;;;;;;;30.10;16.37;;;;;;;10.08;58.49;100271.06;4424091;32;20086;-75
2022/03/18 11:30:18;;;;;;;27.15;14.60;;;;;;;11.18;56.32;100273.72;4424952;32;20111;-75
2022/03/18 11:33:11;;;;;;;30.05;15.02;;;;;;;11.30;54.76;100280.47;4424791;32;20543;-75
2022/03/18 11:35:50;;;;;;;27.90;13.75;;;;;;;11.88;52.96;100274.66;4419832;32;20108;-75
2022/03/18 11:38:25;;;;;;;26.83;13.80;;;;;;;11.59;52.55;100275.88;4425122;32;20086;-75
2022/03/18 11:41:01;;;;;;;26.58;13.80;;;;;;;11.56;53.47;100272.44;4424999;32;20108;-75
2022/03/18 11:43:35;;;;;;;24.85;13.55;;;;;;;11.88;51.75;100274.66;4425117;32;20155;-75
2022/03/18 11:46:17;;;;;;;23.12;12.43;;;;;;;12.54;49.59;100261.66;4423968;32;20116;-75
2022/03/18 11:48:51;;;;;;;22.33;12.07;;;;;;;12.30;48.89;100270.66;4424918;32;20413;-75
2022/03/18 11:51:25;;;;;;;27.48;13.13;;;;;;;12.31;49.94;100268.91;4424992;32;20085;-75
2022/03/18 11:53:54;;;;;;;26.12;13.82;;;;;;;12.43;48.62;100253.19;4424773;32;20073;-74